Neihart, MT (59465)

1:30 PM MDT on July 28, 2016 (GMT -0600)
Malmstrom AFB | | Change Station

Elev 3527 ft 47.50 °N, 111.19 °W | Updated 32 minutes ago

Clear
Clear
76 °F
Feels Like 76 °F
N
4
Wind Variable Wind from SE

Today
High -- | Low -- °F
--% Chance of Precip.
Yesterday
High -- | Low -- °F
Precip. -- in
Pressure 30.14 in
Visibility 10.0 miles
Clouds Clear
Dew Point 51 °F
Humidity 41%
Rainfall 0.04 in
Snow Depth Not available.
5:58 AM 9:00 PM
Waning Crescent, 29% visible
METAR KGFA 281858Z AUTO 14003KT 10SM CLR 25/11 A3018 RMK AO2 SLP204 T02460107 TSNO $
Pressure 30.14 in
Visibility 10.0 miles
Clouds Clear
Dew Point 51 °F
Humidity 41%
Rainfall 0.04 in
Snow Depth Not available.
5:58 AM 9:00 PM
Waning Crescent, 29% visible
METAR KGFA 281858Z AUTO 14003KT 10SM CLR 25/11 A3018 RMK AO2 SLP204 T02460107 TSNO $

10-Day Weather Forecast

Almanac

Astronomy

Jul. 28, 2016 Rise Set
Actual Time
Civil Twilight
Nautical Twilight
Astronomical Twilight
Moon
Length of Visible Light
Length of Day
Tomorrow will be .
, % of the Moon is Illuminated

Today's Extremes

State Highs State Lows

Community

WunderPhotos

Upload Photos

1,928,191 photos uploaded!

WunderBlog® & News

Nearby

Air Quality

  Air Quality AQ Index Pollutant
Not available.

Snow Depth

Station Depth Elevation

Earthquake Activity

City Distance Mag. Time & Date
Minimum magnitude displayed is 2.5.

Coastal Water Temperatures

Place Temperature

Stations

Nearby Weather Stations

Station Location Temp. Windchill Dew Point Humidity Wind Precip. Elev Updated Type
                   

Watches & Warnings

There are currently no watches in effect.